Terminal Aerodrome Forecast
Issued by NWS

Home | Current Version | Previous Version | Text Only | Print | Product List | Glossary On
Versions: 1 2 3 4 5 6 7 8 9 10 11 12 13 14 15 16 17 18 19
157
FTUS42 KILM 261126
TAFCRE
TAF
KCRE 261126Z 2612/2712 02006KT P6SM FEW002 FEW040 SCT100
     FM261700 09009KT P6SM BKN130
     FM262300 12004KT P6SM SCT250
     FM270600 00000KT P6SM BKN250=

USA.gov is the U.S. government's official web portal to all federal, state and local government web resources and services.